Time;durP1;ratioP1;P1;durP2;ratioP2;P2;SDS_P1;SDS_P2;PMS_P1;PMS_P2;Temp;Humidity;BMP_temperature;BMP_pressure;BME280_temperature;BME280_humidity;BME280_pressure;Samples;Min_cycle;Max_cycle;Signal;HPM_P1;HPM_P2
2022/08/04 00:25:10;;;;;;;6.50;2.38;;;;;;;;;;4890160;29;20641;-85
2022/08/04 00:29:46;;;;;;;13.95;3.83;;;;;;;;;;4913111;29;20063;-85
2022/08/04 00:56:48;;;;;;;6.60;2.33;;;;;;;;;;4905103;29;20059;-85
2022/08/04 01:00:14;;;;;;;5.97;2.40;;;;;;;;;;4911563;29;20051;-85
2022/08/04 01:04:14;;;;;;;6.57;2.50;;;;;;;;;;4928839;28;20448;-85
2022/08/04 01:12:07;;;;;;;7.45;2.63;;;;;;;;;;4875067;29;20063;-84
2022/08/04 01:49:19;;;;;;;6.53;2.53;;;;;;;;;;5004619;28;20562;-85
2022/08/04 01:53:34;;;;;;;5.63;2.63;;;;;;;;;;4971188;28;20442;-84
2022/08/04 01:57:22;;;;;;;10.43;2.70;;;;;;;;;;4971175;28;20054;-84
2022/08/04 02:00:34;;;;;;;11.43;2.88;;;;;;;;;;4970517;28;20142;-84
2022/08/04 02:04:15;;;;;;;8.27;2.70;;;;;;;;;;4960961;28;20046;-84
2022/08/04 03:00:17;;;;;;;8.70;2.97;;;;;;;;;;5036835;28;20056;-85
2022/08/04 03:03:22;;;;;;;6.45;2.88;;;;;;;;;;5035851;28;20045;-84
2022/08/04 03:16:54;;;;;;;5.28;2.42;;;;;;;;;;4998469;28;20134;-84
2022/08/04 03:21:00;;;;;;;4.90;2.30;;;;;;;;;;4997408;28;20482;-84
2022/08/04 04:01:08;;;;;;;5.25;3.30;;;;;;;;;;5020975;28;20102;-84
2022/08/04 04:04:50;;;;;;;7.05;2.85;;;;;;;;;;5018776;28;20060;-84
2022/08/04 04:17:21;;;;;;;9.15;3.20;;;;;;;;;;5017239;28;20069;-84
2022/08/04 04:20:43;;;;;;;5.57;2.58;;;;;;;;;;4995125;28;20119;-84
2022/08/04 04:41:53;;;;;;;10.40;3.05;;;;;;;;;;5033651;28;20060;-83
2022/08/04 05:02:57;;;;;;;5.95;2.95;;;;;;;;;;5032910;28;20114;-84
2022/08/04 05:06:07;;;;;;;6.85;3.28;;;;;;;;;;5013787;28;20132;-82
2022/08/04 05:09:11;;;;;;;11.60;4.22;;;;;;;;;;5019169;28;20149;-82
2022/08/04 05:11:42;;;;;;;10.25;3.63;;;;;;;;;;5015974;28;20041;-82
2022/08/04 05:14:34;;;;;;;8.65;3.50;;;;;;;;;;5013432;28;20136;-81
2022/08/04 05:17:29;;;;;;;7.95;3.30;;;;;;;;;;4999450;28;20251;-82
2022/08/04 05:20:21;;;;;;;7.55;3.33;;;;;;;;;;5032624;28;20141;-81
2022/08/04 05:23:12;;;;;;;10.73;3.25;;;;;;;;;;5034010;28;20188;-81
2022/08/04 05:25:50;;;;;;;7.38;3.20;;;;;;;;;;5015311;28;20124;-82
2022/08/04 05:28:33;;;;;;;5.35;2.75;;;;;;;;;;5032663;28;20053;-82
2022/08/04 05:31:07;;;;;;;5.47;2.78;;;;;;;;;;5016082;28;20049;-81
2022/08/04 05:33:50;;;;;;;9.32;3.03;;;;;;;;;;5030009;28;20107;-81
2022/08/04 05:36:31;;;;;;;6.18;2.92;;;;;;;;;;5031501;28;20208;-82
2022/08/04 05:39:16;;;;;;;8.15;4.22;;;;;;;;;;5031743;28;20159;-81
2022/08/04 05:42:11;;;;;;;7.78;3.22;;;;;;;;;;5031212;28;20072;-81
2022/08/04 05:44:41;;;;;;;5.68;3.15;;;;;;;;;;4996854;28;20893;-83
2022/08/04 05:47:16;;;;;;;10.15;3.20;;;;;;;;;;5013934;28;20049;-83
2022/08/04 05:49:44;;;;;;;8.15;3.03;;;;;;;;;;5031839;28;20053;-83
2022/08/04 05:52:29;;;;;;;9.63;2.92;;;;;;;;;;5001076;28;20111;-82
2022/08/04 05:54:59;;;;;;;10.45;3.03;;;;;;;;;;5014003;28;20052;-83
2022/08/04 05:57:29;;;;;;;4.80;2.67;;;;;;;;;;5015971;28;20811;-83
2022/08/04 06:00:24;;;;;;;10.60;2.88;;;;;;;;;;5012564;28;20044;-82
2022/08/04 06:02:59;;;;;;;6.95;3.65;;;;;;;;;;5012468;28;20132;-82
2022/08/04 06:05:28;;;;;;;8.65;2.58;;;;;;;;;;5031976;28;20045;-84
2022/08/04 06:07:59;;;;;;;5.88;2.55;;;;;;;;;;4982482;28;20904;-83
2022/08/04 06:10:46;;;;;;;8.00;2.65;;;;;;;;;;5028022;28;20061;-84
2022/08/04 06:13:50;;;;;;;10.70;2.85;;;;;;;;;;5031382;28;20469;-84
2022/08/04 06:16:42;;;;;;;8.48;2.67;;;;;;;;;;4978036;28;20503;-84
2022/08/04 06:19:46;;;;;;;7.65;2.90;;;;;;;;;;5030211;28;20057;-84
2022/08/04 06:22:40;;;;;;;7.90;3.10;;;;;;;;;;5001526;28;20119;-84
2022/08/04 06:25:49;;;;;;;9.73;3.40;;;;;;;;;;5018650;28;20470;-83
2022/08/04 06:28:21;;;;;;;8.63;2.90;;;;;;;;;;5032910;28;20060;-83
2022/08/04 06:31:08;;;;;;;7.65;2.83;;;;;;;;;;4993287;28;20057;-83
2022/08/04 06:34:17;;;;;;;7.78;3.30;;;;;;;;;;5006271;28;20140;-84
2022/08/04 06:37:00;;;;;;;8.85;2.85;;;;;;;;;;5002947;28;20413;-84
2022/08/04 06:39:46;;;;;;;6.35;2.80;;;;;;;;;;5031933;28;20053;-83
2022/08/04 06:42:34;;;;;;;4.70;2.40;;;;;;;;;;5016403;28;20049;-83
2022/08/04 06:45:43;;;;;;;11.90;3.20;;;;;;;;;;5034309;28;20191;-83
2022/08/04 06:48:24;;;;;;;5.47;2.40;;;;;;;;;;5033778;28;20057;-83
2022/08/04 06:51:11;;;;;;;5.40;2.20;;;;;;;;;;5010095;28;20107;-83
2022/08/04 06:53:53;;;;;;;8.38;2.53;;;;;;;;;;5035430;28;20222;-85
2022/08/04 06:56:38;;;;;;;6.15;2.92;;;;;;;;;;5000275;28;20048;-83
2022/08/04 06:59:21;;;;;;;6.60;2.40;;;;;;;;;;5030947;28;20052;-83
2022/08/04 07:01:57;;;;;;;14.35;2.80;;;;;;;;;;5025629;28;20236;-83
2022/08/04 07:04:41;;;;;;;10.00;3.10;;;;;;;;;;5012759;28;20136;-83
2022/08/04 07:07:28;;;;;;;9.40;2.60;;;;;;;;;;5013630;28;20053;-83
2022/08/04 07:10:10;;;;;;;10.60;3.22;;;;;;;;;;5000694;28;20132;-83
2022/08/04 07:12:52;;;;;;;7.90;2.65;;;;;;;;;;5001131;28;20085;-83
2022/08/04 07:15:24;;;;;;;8.10;2.45;;;;;;;;;;5030265;28;20131;-83
2022/08/04 07:19:05;;;;;;;5.47;2.20;;;;;;;;;;5029483;28;20056;-84
2022/08/04 07:22:31;;;;;;;10.35;2.47;;;;;;;;;;5012339;28;20130;-84
2022/08/04 07:25:14;;;;;;;7.55;2.70;;;;;;;;;;5001774;28;20052;-83
2022/08/04 07:27:55;;;;;;;7.22;2.40;;;;;;;;;;5031740;28;20072;-84
2022/08/04 07:30:43;;;;;;;8.07;3.00;;;;;;;;;;5001885;28;20053;-83
2022/08/04 07:33:27;;;;;;;9.05;3.00;;;;;;;;;;4983348;28;20401;-83
2022/08/04 07:36:33;;;;;;;6.90;2.97;;;;;;;;;;5015169;28;20467;-83
2022/08/04 07:39:46;;;;;;;5.25;2.50;;;;;;;;;;5030342;28;21379;-83
2022/08/04 07:42:33;;;;;;;5.15;2.15;;;;;;;;;;5033522;28;20069;-83
2022/08/04 07:45:25;;;;;;;7.75;2.55;;;;;;;;;;5018119;28;20059;-83
2022/08/04 07:48:09;;;;;;;7.50;2.42;;;;;;;;;;5032234;28;20056;-83
2022/08/04 07:50:52;;;;;;;8.27;1.98;;;;;;;;;;5013026;28;20049;-84
2022/08/04 07:53:34;;;;;;;7.75;2.15;;;;;;;;;;5030962;28;20053;-83
2022/08/04 07:56:15;;;;;;;8.73;2.83;;;;;;;;;;5013923;28;20096;-83
2022/08/04 07:59:01;;;;;;;8.80;2.13;;;;;;;;;;5018547;28;20509;-84
2022/08/04 08:01:58;;;;;;;7.63;2.30;;;;;;;;;;5017726;28;20053;-83
2022/08/04 08:05:08;;;;;;;6.57;2.30;;;;;;;;;;5016171;28;20052;-83
2022/08/04 08:08:04;;;;;;;6.75;2.15;;;;;;;;;;5030075;28;20107;-83
2022/08/04 08:11:08;;;;;;;6.45;2.22;;;;;;;;;;5018584;28;20053;-83
2022/08/04 08:14:16;;;;;;;3.72;1.90;;;;;;;;;;5024777;28;20163;-84
2022/08/04 08:17:41;;;;;;;7.53;2.45;;;;;;;;;;5026805;28;20049;-83
2022/08/04 08:20:23;;;;;;;6.93;2.10;;;;;;;;;;5014579;28;20153;-84
2022/08/04 08:23:49;;;;;;;5.55;1.90;;;;;;;;;;5025679;28;20567;-84
2022/08/04 08:26:33;;;;;;;7.68;2.08;;;;;;;;;;4997816;28;20521;-84
2022/08/04 08:30:00;;;;;;;6.80;1.80;;;;;;;;;;5023455;28;20365;-84
2022/08/04 08:33:04;;;;;;;5.97;1.92;;;;;;;;;;5017949;28;20073;-84
2022/08/04 08:37:14;;;;;;;5.25;1.77;;;;;;;;;;5015642;28;20045;-85
2022/08/04 08:40:25;;;;;;;6.28;1.92;;;;;;;;;;5013976;28;20060;-84
2022/08/04 08:43:38;;;;;;;8.48;1.83;;;;;;;;;;4971415;28;20050;-85
2022/08/04 08:47:53;;;;;;;9.75;2.83;;;;;;;;;;4953633;28;20118;-84
2022/08/04 08:50:39;;;;;;;5.88;1.77;;;;;;;;;;4957380;28;20157;-84
2022/08/04 08:54:14;;;;;;;4.57;2.03;;;;;;;;;;4954272;28;20530;-84
2022/08/04 08:58:03;;;;;;;6.72;1.67;;;;;;;;;;4967953;28;20072;-84
2022/08/04 09:00:54;;;;;;;4.97;1.67;;;;;;;;;;4948380;28;20065;-84
2022/08/04 09:04:15;;;;;;;4.28;1.95;;;;;;;;;;4968778;28;20419;-84
2022/08/04 09:07:02;;;;;;;5.97;1.90;;;;;;;;;;4964122;28;20070;-84
2022/08/04 09:09:58;;;;;;;8.02;1.77;;;;;;;;;;4966625;28;20422;-84
2022/08/04 09:13:36;;;;;;;5.47;2.10;;;;;;;;;;4964553;28;20054;-85
2022/08/04 09:16:49;;;;;;;7.38;2.13;;;;;;;;;;4934672;28;20873;-85
2022/08/04 09:19:34;;;;;;;3.80;1.80;;;;;;;;;;4977710;28;20053;-84
2022/08/04 09:22:28;;;;;;;4.68;2.00;;;;;;;;;;5031587;28;20065;-84
2022/08/04 09:25:48;;;;;;;3.92;1.65;;;;;;;;;;5030553;28;20050;-84
2022/08/04 09:29:59;;;;;;;4.47;1.90;;;;;;;;;;4949373;28;20098;-85
2022/08/04 09:43:39;;;;;;;5.07;2.10;;;;;;;;;;4846928;29;20049;-85
2022/08/04 09:48:33;;;;;;;3.35;1.88;;;;;;;;;;4826813;29;20042;-85
2022/08/04 09:51:52;;;;;;;4.30;1.98;;;;;;;;;;4757177;30;20048;-85
2022/08/04 09:55:38;;;;;;;6.60;2.13;;;;;;;;;;4753147;30;20059;-85
2022/08/04 09:59:44;;;;;;;7.93;2.20;;;;;;;;;;4755898;29;20147;-85
2022/08/04 10:04:05;;;;;;;5.80;1.85;;;;;;;;;;4767118;30;20054;-85
2022/08/04 10:08:33;;;;;;;2.55;1.60;;;;;;;;;;4753940;30;20058;-85
2022/08/04 10:13:37;;;;;;;2.90;1.70;;;;;;;;;;4760751;29;20595;-85
2022/08/04 10:17:47;;;;;;;4.80;1.55;;;;;;;;;;4708946;30;20140;-85
2022/08/04 10:21:43;;;;;;;7.15;1.60;;;;;;;;;;4727629;30;20064;-85
2022/08/04 10:24:49;;;;;;;3.58;1.83;;;;;;;;;;4738660;30;20064;-85
2022/08/04 10:29:32;;;;;;;6.43;1.95;;;;;;;;;;4752653;30;20048;-85
2022/08/04 10:33:52;;;;;;;4.28;2.10;;;;;;;;;;4752466;30;20054;-84
2022/08/04 10:37:33;;;;;;;7.20;1.98;;;;;;;;;;4779045;29;20051;-86
2022/08/04 10:41:53;;;;;;;4.93;1.75;;;;;;;;;;4790325;29;20114;-85
2022/08/04 10:46:05;;;;;;;4.53;2.00;;;;;;;;;;4840407;29;20594;-85
2022/08/04 10:50:17;;;;;;;4.30;1.80;;;;;;;;;;4857329;29;20056;-85
2022/08/04 10:54:17;;;;;;;4.63;1.95;;;;;;;;;;4970741;28;20051;-84
2022/08/04 10:58:00;;;;;;;8.35;2.10;;;;;;;;;;4981389;28;20054;-85
2022/08/04 11:01:45;;;;;;;3.88;1.90;;;;;;;;;;4984566;28;20054;-85
2022/08/04 17:37:40;;;;;;;12.45;3.90;;;;;;;;;;4911875;29;20479;-88
2022/08/04 17:40:19;;;;;;;13.98;3.15;;;;;;;;;;4882339;29;20048;-88
2022/08/04 17:43:06;;;;;;;11.23;3.63;;;;;;;;;;4899736;29;20052;-95
2022/08/04 17:46:25;;;;;;;6.10;3.15;;;;;;;;;;4889044;29;20131;-94
2022/08/04 17:49:16;;;;;;;6.72;2.40;;;;;;;;;;4882353;29;20044;-93
2022/08/04 17:51:59;;;;;;;16.55;3.63;;;;;;;;;;4884981;29;20111;-88
2022/08/04 17:55:00;;;;;;;8.85;2.63;;;;;;;;;;4895415;29;20052;-88
2022/08/04 17:57:29;;;;;;;10.52;3.47;;;;;;;;;;4904179;29;20041;-88
2022/08/04 18:00:48;;;;;;;7.82;2.63;;;;;;;;;;4912684;29;20048;-96
2022/08/04 18:04:31;;;;;;;9.65;2.72;;;;;;;;;;4908191;29;20497;-92
2022/08/04 18:12:35;;;;;;;9.98;3.40;;;;;;;;;;4933186;29;20738;-90
2022/08/04 18:15:21;;;;;;;9.05;2.65;;;;;;;;;;4900501;29;20059;-95
2022/08/04 18:17:54;;;;;;;5.75;2.30;;;;;;;;;;4902773;29;20051;-89
2022/08/04 18:20:45;;;;;;;6.78;2.90;;;;;;;;;;4903636;29;20044;-90
2022/08/04 18:23:17;;;;;;;7.07;2.45;;;;;;;;;;4906853;29;20056;-91
2022/08/04 18:25:58;;;;;;;10.75;2.90;;;;;;;;;;4901955;29;20052;-94
2022/08/04 18:28:50;;;;;;;6.65;2.40;;;;;;;;;;4884979;29;20060;-94
2022/08/04 18:31:41;;;;;;;7.68;2.65;;;;;;;;;;4899746;29;20128;-95
2022/08/04 18:34:31;;;;;;;5.95;2.50;;;;;;;;;;4901811;29;20499;-95
2022/08/04 18:37:23;;;;;;;7.65;2.58;;;;;;;;;;4905256;29;20095;-90
2022/08/04 18:40:23;;;;;;;6.80;2.30;;;;;;;;;;4905419;29;20206;-91
2022/08/04 18:43:15;;;;;;;9.25;2.47;;;;;;;;;;4897334;29;20707;-91
2022/08/04 18:45:56;;;;;;;8.43;2.47;;;;;;;;;;4892878;29;20052;-92
2022/08/04 18:48:27;;;;;;;6.82;2.40;;;;;;;;;;4865740;29;20085;-95
2022/08/04 18:51:05;;;;;;;7.28;2.33;;;;;;;;;;4880887;29;20061;-96
2022/08/04 18:53:55;;;;;;;11.70;2.65;;;;;;;;;;4881182;29;20053;-95
2022/08/04 18:56:27;;;;;;;11.23;2.97;;;;;;;;;;4898338;29;20060;-91
2022/08/04 18:59:00;;;;;;;6.97;2.42;;;;;;;;;;4896597;29;20056;-95
2022/08/04 19:01:30;;;;;;;7.57;2.92;;;;;;;;;;4881694;29;20053;-96
2022/08/04 19:04:18;;;;;;;6.57;2.72;;;;;;;;;;4882074;29;20140;-95
2022/08/04 19:07:02;;;;;;;7.28;2.65;;;;;;;;;;4893031;29;20113;-88
2022/08/04 19:09:49;;;;;;;8.55;3.13;;;;;;;;;;4904489;29;20053;-89
2022/08/04 19:12:21;;;;;;;8.05;3.10;;;;;;;;;;4892426;29;20065;-89
2022/08/04 19:14:59;;;;;;;8.73;3.28;;;;;;;;;;4910403;29;20059;-90
2022/08/04 19:17:38;;;;;;;6.53;3.58;;;;;;;;;;4905727;29;20060;-90
2022/08/04 19:20:24;;;;;;;9.10;3.22;;;;;;;;;;4909712;29;20060;-90
2022/08/04 19:22:57;;;;;;;5.78;2.67;;;;;;;;;;4908521;29;20047;-90
2022/08/04 19:25:46;;;;;;;9.00;2.47;;;;;;;;;;4913143;29;20498;-94
2022/08/04 19:28:31;;;;;;;5.70;2.30;;;;;;;;;;4899683;29;20076;-95
2022/08/04 19:31:04;;;;;;;5.72;2.38;;;;;;;;;;4900466;29;20060;-95
2022/08/04 19:33:32;;;;;;;6.78;2.47;;;;;;;;;;4899991;29;20054;-94
2022/08/04 19:36:28;;;;;;;5.93;2.40;;;;;;;;;;4898960;29;20060;-94
2022/08/04 19:39:06;;;;;;;7.85;2.75;;;;;;;;;;4914574;29;20475;-90
2022/08/04 19:41:38;;;;;;;8.30;2.60;;;;;;;;;;4899604;29;20147;-89
2022/08/04 19:44:51;;;;;;;9.45;3.25;;;;;;;;;;4902119;29;20519;-89
2022/08/04 19:47:19;;;;;;;11.57;4.80;;;;;;;;;;4913730;29;20044;-89
2022/08/04 19:50:18;;;;;;;9.57;4.90;;;;;;;;;;4910653;29;20043;-89
2022/08/04 19:52:45;;;;;;;8.00;4.20;;;;;;;;;;4908787;29;20044;-89
2022/08/04 19:55:35;;;;;;;9.18;4.25;;;;;;;;;;4898538;29;20058;-88
2022/08/04 19:58:27;;;;;;;5.32;3.97;;;;;;;;;;4910003;29;20047;-92
2022/08/04 20:00:55;;;;;;;11.15;3.53;;;;;;;;;;4902069;29;20131;-92
2022/08/04 20:03:23;;;;;;;7.13;3.75;;;;;;;;;;4930648;29;20056;-93
2022/08/04 20:06:12;;;;;;;7.30;3.63;;;;;;;;;;4896375;29;20120;-93
2022/08/04 20:08:39;;;;;;;7.93;3.63;;;;;;;;;;4897392;29;20084;-92
2022/08/04 20:11:16;;;;;;;6.00;3.38;;;;;;;;;;4902172;29;20059;-92
2022/08/04 20:17:34;;;;;;;7.80;4.53;;;;;;;;;;4916063;29;20422;-92
2022/08/04 20:20:43;;;;;;;;;;;;;;;;;;;;;
2022/08/04 20:23:21;;;;;;;9.07;5.63;;;;;;;;;;4915403;29;20074;-90
2022/08/04 20:26:09;;;;;;;12.95;5.63;;;;;;;;;;4900110;29;20664;-90
2022/08/04 20:28:43;;;;;;;11.77;5.35;;;;;;;;;;4916257;29;20052;-90
2022/08/04 20:31:13;;;;;;;12.45;5.20;;;;;;;;;;4902240;29;20060;-89
2022/08/04 20:33:51;;;;;;;8.25;4.45;;;;;;;;;;4905972;29;20059;-88
2022/08/04 20:36:22;;;;;;;8.32;4.40;;;;;;;;;;4899486;29;20127;-92
2022/08/04 20:38:51;;;;;;;7.32;4.10;;;;;;;;;;4917725;29;20086;-90
2022/08/04 20:41:20;;;;;;;7.90;4.10;;;;;;;;;;4887051;29;20060;-89
2022/08/04 20:43:47;;;;;;;6.28;2.83;;;;;;;;;;4904969;29;20176;-89
2022/08/04 20:46:20;;;;;;;9.38;2.97;;;;;;;;;;4918693;29;20071;-93
2022/08/04 20:49:21;;;;;;;6.30;2.60;;;;;;;;;;4914744;29;20048;-89
2022/08/04 20:52:05;;;;;;;9.95;3.67;;;;;;;;;;4895939;29;20959;-89
2022/08/04 20:54:50;;;;;;;10.70;4.93;;;;;;;;;;4911639;29;20049;-89
2022/08/04 20:57:47;;;;;;;12.60;6.20;;;;;;;;;;4904968;29;20092;-89
2022/08/04 21:00:39;;;;;;;10.70;5.43;;;;;;;;;;4892582;29;20182;-89
2022/08/04 21:04:29;;;;;;;10.63;5.38;;;;;;;;;;4908139;29;20184;-89
2022/08/04 21:06:32;;;;;;;12.52;4.88;;;;;;;;;;4909091;29;20373;-89
2022/08/04 21:08:59;;;;;;;7.57;3.97;;;;;;;;;;4901741;29;20052;-90
2022/08/04 21:11:35;;;;;;;9.13;3.40;;;;;;;;;;4901048;29;20388;-89
2022/08/04 21:14:28;;;;;;;7.20;3.38;;;;;;;;;;4915150;29;20051;-89
2022/08/04 21:16:57;;;;;;;6.55;2.67;;;;;;;;;;4881633;29;20080;-93
2022/08/04 21:19:26;;;;;;;8.45;3.15;;;;;;;;;;4898840;29;20048;-93
2022/08/04 21:22:18;;;;;;;6.13;3.20;;;;;;;;;;4882228;29;20040;-92
2022/08/04 21:24:59;;;;;;;7.78;3.03;;;;;;;;;;4874582;29;20048;-93
2022/08/04 21:28:17;;;;;;;9.75;4.00;;;;;;;;;;4894764;29;20043;-93
2022/08/04 21:30:49;;;;;;;10.15;3.67;;;;;;;;;;4885260;29;20063;-92
2022/08/04 21:33:23;;;;;;;12.60;4.50;;;;;;;;;;4885635;29;20048;-93
2022/08/04 21:36:35;;;;;;;15.57;4.78;;;;;;;;;;4908371;29;20566;-90
2022/08/04 21:39:04;;;;;;;10.93;4.72;;;;;;;;;;4910920;29;21047;-89
2022/08/04 21:41:38;;;;;;;11.35;4.60;;;;;;;;;;4908787;29;20048;-89
2022/08/04 21:44:31;;;;;;;12.90;4.75;;;;;;;;;;4915332;29;20839;-89
2022/08/04 21:47:03;;;;;;;12.18;4.97;;;;;;;;;;4919997;29;20086;-89
2022/08/04 21:49:41;;;;;;;10.00;5.30;;;;;;;;;;4897763;29;20135;-89
2022/08/04 21:52:23;;;;;;;10.52;5.15;;;;;;;;;;4917541;29;20108;-89
2022/08/04 21:54:51;;;;;;;11.98;4.63;;;;;;;;;;4896641;29;20847;-89
2022/08/04 21:57:21;;;;;;;15.48;6.00;;;;;;;;;;4913672;29;20128;-93
2022/08/04 21:59:59;;;;;;;16.33;5.50;;;;;;;;;;4892136;29;20055;-93
2022/08/04 22:02:33;;;;;;;19.23;6.28;;;;;;;;;;4920178;29;20387;-93
2022/08/04 22:05:33;;;;;;;12.75;6.00;;;;;;;;;;4913220;29;20127;-93
2022/08/04 22:08:05;;;;;;;21.63;6.55;;;;;;;;;;4909450;29;20079;-92
2022/08/04 22:10:45;;;;;;;17.98;6.60;;;;;;;;;;4932857;29;20094;-93
2022/08/04 22:13:13;;;;;;;14.55;6.18;;;;;;;;;;4904002;29;20078;-92
2022/08/04 22:15:49;;;;;;;15.27;6.32;;;;;;;;;;4921020;29;20055;-89
2022/08/04 22:18:37;;;;;;;15.43;6.38;;;;;;;;;;4899015;29;20052;-88
2022/08/04 22:21:05;;;;;;;18.85;6.63;;;;;;;;;;4893573;29;20060;-89
2022/08/04 22:23:38;;;;;;;20.90;6.53;;;;;;;;;;4908533;29;20086;-90
2022/08/04 22:26:17;;;;;;;15.73;6.35;;;;;;;;;;4910033;29;20051;-91
2022/08/04 22:28:55;;;;;;;15.30;6.57;;;;;;;;;;4907769;29;20079;-93
2022/08/04 22:31:37;;;;;;;19.95;6.78;;;;;;;;;;4934991;29;20578;-93
2022/08/04 22:34:24;;;;;;;15.70;6.15;;;;;;;;;;4935059;29;20647;-93
2022/08/04 22:36:51;;;;;;;18.13;7.05;;;;;;;;;;4910795;29;20052;-89
2022/08/04 22:39:20;;;;;;;14.25;6.43;;;;;;;;;;4889084;29;20615;-89
2022/08/04 22:41:51;;;;;;;14.80;6.88;;;;;;;;;;4893243;29;20054;-89
2022/08/04 22:44:36;;;;;;;14.00;6.28;;;;;;;;;;4911624;29;20053;-89
2022/08/04 22:47:03;;;;;;;15.88;6.05;;;;;;;;;;4897535;29;20068;-93
2022/08/04 22:50:13;;;;;;;14.55;5.70;;;;;;;;;;4921796;29;20058;-92
2022/08/04 22:52:54;;;;;;;14.18;5.55;;;;;;;;;;4918933;29;20056;-93
2022/08/04 22:55:21;;;;;;;16.17;5.78;;;;;;;;;;4919457;29;20126;-92
2022/08/04 22:58:13;;;;;;;16.80;6.55;;;;;;;;;;4897317;29;20933;-93
2022/08/04 23:01:06;;;;;;;19.33;6.70;;;;;;;;;;4881689;29;20049;-93
2022/08/04 23:03:43;;;;;;;22.52;6.32;;;;;;;;;;4895293;29;20476;-93
2022/08/04 23:06:24;;;;;;;13.57;6.35;;;;;;;;;;4911791;29;20152;-93
2022/08/04 23:08:56;;;;;;;17.23;6.60;;;;;;;;;;4897049;29;20465;-93
2022/08/04 23:11:25;;;;;;;16.30;7.28;;;;;;;;;;4914940;29;20134;-92
2022/08/04 23:14:27;;;;;;;20.90;7.45;;;;;;;;;;4926761;29;20048;-92
2022/08/04 23:16:55;;;;;;;17.70;6.88;;;;;;;;;;4907671;29;20087;-89
2022/08/04 23:19:23;;;;;;;13.10;5.72;;;;;;;;;;4915600;29;20733;-89
2022/08/04 23:22:15;;;;;;;15.82;5.90;;;;;;;;;;4915015;29;20047;-89
2022/08/04 23:25:04;;;;;;;16.30;6.93;;;;;;;;;;4903068;29;20139;-88
2022/08/04 23:27:35;;;;;;;17.58;7.10;;;;;;;;;;4918424;29;21026;-89
2022/08/04 23:30:08;;;;;;;14.68;6.45;;;;;;;;;;4900397;29;20052;-89
2022/08/04 23:32:35;;;;;;;19.70;6.65;;;;;;;;;;4906519;29;20052;-89
2022/08/04 23:35:29;;;;;;;14.05;6.55;;;;;;;;;;4908391;29;20048;-89
2022/08/04 23:38:21;;;;;;;16.90;6.78;;;;;;;;;;4900216;29;20040;-93
2022/08/04 23:41:09;;;;;;;17.75;7.13;;;;;;;;;;4899950;29;20108;-94
2022/08/04 23:43:45;;;;;;;18.08;7.00;;;;;;;;;;4900260;29;20060;-93
2022/08/04 23:46:22;;;;;;;13.77;7.03;;;;;;;;;;4904640;29;20080;-89
2022/08/04 23:48:55;;;;;;;13.88;6.68;;;;;;;;;;4900490;29;20044;-93
2022/08/04 23:54:15;;;;;;;14.82;6.47;;;;;;;;;;4901192;29;20128;-92
2022/08/04 23:56:57;;;;;;;12.73;6.38;;;;;;;;;;4910410;29;20040;-89
2022/08/04 23:59:29;;;;;;;14.52;6.97;;;;;;;;;;4901739;29;20131;-88
